Time;durP1;ratioP1;P1;durP2;ratioP2;P2;SDS_P1;SDS_P2;PMS_P1;PMS_P2;Temp;Humidity;BMP_temperature;BMP_pressure;BME280_temperature;BME280_humidity;BME280_pressure;Samples;Min_cycle;Max_cycle;Signal;HPM_P1;HPM_P2
2022/04/26 03:36:11;;;;;;;4.90;4.40;;;4.30;99.90;;;;;;7270975;19;2004525;-75
2022/04/26 03:38:38;;;;;;;5.43;4.50;;;4.10;99.90;;;;;;7273372;19;2004401;-75
2022/04/26 03:41:03;;;;;;;5.57;4.35;;;4.00;99.90;;;;;;7368743;19;20344;-74
2022/04/26 03:43:29;;;;;;;4.67;4.17;;;3.90;99.90;;;;;;7370346;19;20356;-74
2022/04/26 03:45:55;;;;;;;5.45;4.45;;;3.90;99.90;;;;;;7374656;19;20341;-75
2022/04/26 03:48:21;;;;;;;4.90;4.27;;;3.80;99.90;;;;;;7374486;19;20681;-74
2022/04/26 03:50:47;;;;;;;6.28;4.20;;;3.80;99.90;;;;;;7367664;19;20789;-74
2022/04/26 03:53:13;;;;;;;5.03;4.20;;;3.90;99.90;;;;;;7373344;19;20308;-74
2022/04/26 03:55:38;;;;;;;5.10;4.00;;;3.90;99.90;;;;;;7372282;19;20400;-75
2022/04/26 03:58:04;;;;;;;4.13;3.67;;;3.90;99.90;;;;;;7375408;19;20349;-75
2022/04/26 04:00:29;;;;;;;3.50;3.20;;;3.80;99.90;;;;;;7365844;19;20407;-75
2022/04/26 04:02:56;;;;;;;3.75;3.30;;;3.90;99.90;;;;;;7372685;19;20340;-75
2022/04/26 04:05:22;;;;;;;4.53;3.88;;;3.90;99.90;;;;;;7374979;19;20365;-75
2022/04/26 04:07:47;;;;;;;5.43;4.00;;;3.90;99.90;;;;;;7372538;19;20370;-74
2022/04/26 04:10:14;;;;;;;4.25;3.83;;;3.80;99.90;;;;;;7369897;19;20424;-74
2022/04/26 04:12:39;;;;;;;4.33;3.57;;;3.90;99.90;;;;;;7371853;19;20423;-74
2022/04/26 04:15:05;;;;;;;3.70;3.40;;;3.80;99.90;;;;;;7369621;19;20340;-74
2022/04/26 04:17:31;;;;;;;3.63;3.30;;;3.80;99.90;;;;;;7376121;19;20362;-74
2022/04/26 04:19:56;;;;;;;3.57;3.23;;;3.80;99.90;;;;;;7371867;19;20344;-75
2022/04/26 04:22:22;;;;;;;4.53;3.50;;;3.90;99.90;;;;;;7371443;19;20344;-74
2022/04/26 04:24:48;;;;;;;3.93;3.53;;;3.90;99.90;;;;;;7373257;19;20353;-75
2022/04/26 04:27:13;;;;;;;4.10;3.47;;;3.90;99.90;;;;;;7374687;19;20385;-75
2022/04/26 04:29:39;;;;;;;6.45;4.55;;;3.90;99.90;;;;;;7367002;19;20351;-75
2022/04/26 04:32:05;;;;;;;5.63;4.00;;;4.00;99.90;;;;;;7371057;19;20365;-75
2022/04/26 04:34:31;;;;;;;5.22;4.18;;;4.00;99.90;;;;;;7372697;19;20349;-75
2022/04/26 04:36:57;;;;;;;5.03;4.13;;;4.00;99.90;;;;;;7369785;19;20383;-74
2022/04/26 04:39:23;;;;;;;3.92;3.53;;;3.90;99.90;;;;;;7372229;19;20912;-75
2022/04/26 04:41:51;;;;;;;4.43;3.63;;;4.00;99.90;;;;;;7368662;19;20351;-76
2022/04/26 04:44:21;;;;;;;4.97;3.83;;;4.00;99.90;;;;;;7372575;19;20377;-75
2022/04/26 04:46:47;;;;;;;4.50;3.60;;;4.00;99.90;;;;;;7368613;19;20345;-74
2022/04/26 04:49:14;;;;;;;4.40;4.00;;;3.90;99.90;;;;;;7367867;19;20379;-74
2022/04/26 04:51:40;;;;;;;5.43;3.67;;;4.00;99.90;;;;;;7368746;19;20416;-74
2022/04/26 04:54:06;;;;;;;4.60;4.00;;;4.00;99.90;;;;;;7376486;19;20512;-74
2022/04/26 04:56:31;;;;;;;5.00;4.00;;;4.10;99.90;;;;;;7368590;19;20365;-74
2022/04/26 04:58:57;;;;;;;4.57;3.90;;;4.20;99.90;;;;;;7368790;19;20403;-74
2022/04/26 05:01:23;;;;;;;4.93;4.18;;;4.20;99.90;;;;;;7364685;19;20697;-75
2022/04/26 05:03:49;;;;;;;5.03;4.27;;;4.30;99.90;;;;;;7368163;19;20894;-74
2022/04/26 05:06:15;;;;;;;4.82;4.32;;;4.20;99.90;;;;;;7367120;19;20300;-75
2022/04/26 05:08:41;;;;;;;4.75;4.30;;;4.30;99.90;;;;;;7367469;19;21006;-74
2022/04/26 05:11:06;;;;;;;7.13;5.15;;;4.40;99.90;;;;;;7363577;19;20337;-74
2022/04/26 05:13:32;;;;;;;5.88;4.80;;;4.40;99.90;;;;;;7367329;19;20891;-72
2022/04/26 05:15:58;;;;;;;6.00;5.20;;;4.40;99.90;;;;;;7341369;19;20360;-73
2022/04/26 05:18:23;;;;;;;6.07;4.90;;;4.50;99.90;;;;;;7368576;19;20399;-74
2022/04/26 05:20:49;;;;;;;6.30;5.60;;;4.50;99.90;;;;;;7363034;19;20412;-73
2022/04/26 05:25:59;;;;;;;4.90;4.32;;;4.50;99.90;;;;;;7369679;19;20380;-72
2022/04/26 05:28:24;;;;;;;5.78;5.18;;;4.70;99.90;;;;;;7371941;19;21000;-74
2022/04/26 05:30:53;;;;;;;7.07;5.67;;;4.70;99.90;;;;;;7364467;19;20983;-72
2022/04/26 05:33:20;;;;;;;7.28;5.15;;;4.70;99.90;;;;;;7371482;19;20360;-72
2022/04/26 05:35:46;;;;;;;5.10;4.47;;;4.80;99.90;;;;;;7364202;19;20333;-73
2022/04/26 05:38:12;;;;;;;4.97;4.47;;;4.90;99.90;;;;;;7370965;19;20312;-72
2022/04/26 05:40:38;;;;;;;7.87;5.27;;;5.00;99.90;;;;;;7364922;19;20369;-72
2022/04/26 05:43:03;;;;;;;6.13;5.18;;;5.20;99.90;;;;;;7370184;19;20904;-73
2022/04/26 05:45:29;;;;;;;5.77;5.10;;;5.30;99.90;;;;;;7371933;19;20528;-72
2022/04/26 05:47:54;;;;;;;5.80;5.20;;;5.40;99.90;;;;;;7374137;19;20324;-72
2022/04/26 05:50:20;;;;;;;5.00;4.50;;;5.60;99.90;;;;;;7367917;19;20321;-72
2022/04/26 05:52:45;;;;;;;6.10;5.00;;;5.80;99.90;;;;;;7369882;19;20339;-74
2022/04/26 05:55:11;;;;;;;7.57;5.27;;;6.00;99.90;;;;;;7370230;19;21249;-73
2022/04/26 05:57:38;;;;;;;9.07;4.93;;;6.10;99.90;;;;;;7373381;19;20320;-72
2022/04/26 06:00:05;;;;;;;6.13;5.03;;;6.30;99.90;;;;;;7366447;19;20345;-73
2022/04/26 06:02:38;;;;;;;6.13;4.82;;;6.40;99.90;;;;;;7369287;19;20347;-72
2022/04/26 06:05:04;;;;;;;9.63;4.53;;;6.60;99.90;;;;;;7371311;19;20324;-72
2022/04/26 06:07:30;;;;;;;10.75;5.32;;;6.80;99.90;;;;;;7379869;19;20395;-74
2022/04/26 06:09:55;;;;;;;5.72;4.53;;;7.00;99.90;;;;;;7373731;19;20340;-73
2022/04/26 06:12:26;;;;;;;6.78;4.60;;;7.20;99.90;;;;;;7378247;19;20862;-74
2022/04/26 06:14:58;;;;;;;7.38;4.53;;;7.40;99.90;;;;;;7374762;19;20349;-74
2022/04/26 06:17:24;;;;;;;8.47;4.37;;;7.50;99.90;;;;;;7381480;19;21089;-73
2022/04/26 06:19:50;;;;;;;5.63;4.53;;;7.70;99.90;;;;;;7372980;19;20440;-73
2022/04/26 06:22:15;;;;;;;5.30;4.47;;;7.90;99.90;;;;;;7379909;19;20320;-73
2022/04/26 06:24:41;;;;;;;5.65;4.47;;;8.00;99.90;;;;;;7380366;19;20369;-73
2022/04/26 06:27:07;;;;;;;5.63;4.70;;;8.20;99.90;;;;;;7378749;19;20344;-74
2022/04/26 06:29:32;;;;;;;5.37;4.10;;;8.30;99.90;;;;;;7376796;19;20360;-75
2022/04/26 06:31:58;;;;;;;6.18;4.50;;;8.30;99.90;;;;;;7373532;19;20432;-75
2022/04/26 06:34:24;;;;;;;4.90;4.20;;;8.40;99.90;;;;;;7381410;19;20320;-75
2022/04/26 06:36:50;;;;;;;5.30;4.80;;;8.60;99.90;;;;;;7378401;19;20361;-75
2022/04/26 06:39:16;;;;;;;5.90;4.70;;;8.80;99.90;;;;;;7377252;19;20369;-74
2022/04/26 06:41:42;;;;;;;4.60;4.03;;;8.90;99.90;;;;;;7378289;19;20835;-74
2022/04/26 06:44:08;;;;;;;5.32;4.57;;;9.00;99.90;;;;;;7378767;19;20362;-74
2022/04/26 06:46:36;;;;;;;5.18;3.75;;;9.20;99.90;;;;;;7376982;19;21004;-74
2022/04/26 06:49:05;;;;;;;5.30;4.43;;;9.30;99.90;;;;;;7278718;19;2004359;-74
2022/04/26 06:51:33;;;;;;;5.43;4.45;;;9.40;99.90;;;;;;7374222;19;20348;-75
2022/04/26 06:53:58;;;;;;;4.57;3.63;;;9.50;99.90;;;;;;7377833;19;20340;-73
2022/04/26 06:56:24;;;;;;;4.95;4.28;;;9.70;99.90;;;;;;7376699;19;20324;-76
2022/04/26 06:58:50;;;;;;;5.70;4.70;;;9.90;99.90;;;;;;7379212;19;20361;-79
2022/04/26 07:01:15;;;;;;;6.78;4.38;;;10.10;99.90;;;;;;7372159;19;20331;-77
2022/04/26 07:03:41;;;;;;;4.43;4.03;;;10.20;99.90;;;;;;7371493;19;20338;-76
2022/04/26 07:06:06;;;;;;;4.75;4.28;;;10.10;99.90;;;;;;7372542;19;20388;-76
2022/04/26 07:08:32;;;;;;;5.97;4.83;;;10.20;99.90;;;;;;7376523;19;20312;-76
2022/04/26 07:10:58;;;;;;;7.32;4.25;;;10.40;99.90;;;;;;7369517;19;20371;-76
2022/04/26 07:13:23;;;;;;;5.10;3.77;;;10.50;99.90;;;;;;7372809;19;20324;-76
2022/04/26 07:15:49;;;;;;;7.28;4.65;;;10.70;99.90;;;;;;7372937;19;21059;-77
2022/04/26 07:18:14;;;;;;;6.90;4.67;;;10.90;99.90;;;;;;7373905;19;20328;-76
2022/04/26 07:20:44;;;;;;;6.10;4.90;;;11.00;99.90;;;;;;7374498;19;20305;-76
2022/04/26 07:23:11;;;;;;;6.40;4.43;;;11.00;99.90;;;;;;7379439;19;20891;-77
2022/04/26 07:25:36;;;;;;;4.53;4.00;;;11.00;99.90;;;;;;7354472;19;20328;-75
2022/04/26 07:28:03;;;;;;;5.83;4.50;;;11.00;99.90;;;;;;7379583;19;20340;-76
2022/04/26 07:30:34;;;;;;;5.28;4.10;;;11.10;99.90;;;;;;7374102;19;20305;-76
2022/04/26 07:35:48;;;;;;;5.20;4.47;;;11.20;99.90;;;;;;7375130;19;20356;-76
2022/04/26 07:38:13;;;;;;;5.53;4.30;;;11.30;99.90;;;;;;7379350;19;20792;-76
2022/04/26 07:40:39;;;;;;;4.82;4.18;;;11.40;99.90;;;;;;7370390;19;20344;-76
2022/04/26 07:43:05;;;;;;;5.40;4.50;;;11.50;99.90;;;;;;7375437;19;20359;-78
2022/04/26 07:45:31;;;;;;;4.10;3.70;;;11.60;99.90;;;;;;7378001;19;20871;-76
2022/04/26 07:47:57;;;;;;;4.00;3.42;;;11.80;99.90;;;;;;7378268;19;20504;-76
2022/04/26 07:50:23;;;;;;;4.40;4.00;;;12.00;99.90;;;;;;7371725;19;20348;-77
2022/04/26 07:52:49;;;;;;;6.10;4.50;;;12.20;99.90;;;;;;7373885;19;20357;-76
2022/04/26 07:55:14;;;;;;;4.23;3.10;;;12.10;99.90;;;;;;7375855;19;21194;-76
2022/04/26 07:57:40;;;;;;;5.50;4.00;;;12.30;99.90;;;;;;7375797;19;20361;-76
2022/04/26 08:00:06;;;;;;;7.07;3.90;;;12.40;99.90;;;;;;7367927;19;20859;-76
2022/04/26 08:02:37;;;;;;;4.45;4.00;;;12.40;99.90;;;;;;7376335;19;20353;-77
2022/04/26 08:05:03;;;;;;;4.15;3.58;;;12.50;99.90;;;;;;7374301;19;20349;-76
2022/04/26 08:07:29;;;;;;;3.33;3.03;;;12.80;99.90;;;;;;7375325;19;21222;-76
2022/04/26 08:09:55;;;;;;;4.85;3.35;;;12.80;99.90;;;;;;7372003;19;20427;-76
2022/04/26 08:12:21;;;;;;;3.70;3.35;;;12.90;99.90;;;;;;7373246;19;20344;-76
2022/04/26 08:14:47;;;;;;;3.55;3.25;;;13.00;99.90;;;;;;7375653;19;20475;-76
2022/04/26 08:17:15;;;;;;;3.57;2.90;;;13.20;99.90;;;;;;7377302;19;20343;-77
2022/04/26 08:19:43;;;;;;;3.85;2.45;;;13.50;99.90;;;;;;7373811;19;20333;-78
2022/04/26 08:22:09;;;;;;;3.33;2.33;;;13.80;99.90;;;;;;7371445;19;20364;-76
2022/04/26 08:27:25;;;;;;;3.33;2.50;;;14.00;99.90;;;;;;7274240;19;2004565;-76
2022/04/26 08:29:52;;;;;;;2.70;2.45;;;14.10;99.90;;;;;;7370722;19;20749;-76
2022/04/26 08:32:18;;;;;;;3.40;2.30;;;14.20;99.90;;;;;;7371655;19;20369;-76
2022/04/26 08:34:43;;;;;;;3.28;2.10;;;14.20;99.90;;;;;;7373463;19;20349;-76
2022/04/26 08:37:09;;;;;;;2.53;2.20;;;14.30;99.90;;;;;;7374862;19;21421;-78
2022/04/26 08:39:35;;;;;;;2.58;2.28;;;14.40;99.90;;;;;;7369816;19;20357;-76
2022/04/26 08:42:01;;;;;;;2.60;2.13;;;14.40;99.90;;;;;;7368975;19;20366;-75
2022/04/26 08:44:27;;;;;;;2.70;2.10;;;14.60;99.90;;;;;;7373601;19;20363;-75
2022/04/26 08:52:22;;;;;;;2.40;2.20;;;14.60;99.90;;;;;;7370791;19;20349;-76
2022/04/26 08:54:49;;;;;;;2.83;2.33;;;14.70;99.90;;;;;;7372021;19;20337;-76
2022/04/26 08:57:15;;;;;;;3.47;2.30;;;14.80;99.90;;;;;;7375351;19;20346;-76
2022/04/26 08:59:50;;;;;;;2.92;2.45;;;15.00;99.90;;;;;;7366880;19;20348;-75
2022/04/26 09:02:20;;;;;;;2.92;2.10;;;15.20;99.90;;;;;;7369266;19;21363;-75
2022/04/26 09:04:46;;;;;;;2.50;2.30;;;15.40;99.90;;;;;;7373761;19;20343;-75
2022/04/26 09:07:12;;;;;;;2.47;2.28;;;15.50;99.90;;;;;;7374501;19;20336;-76
2022/04/26 09:09:39;;;;;;;2.38;2.17;;;15.50;99.90;;;;;;7372469;19;20352;-77
2022/04/26 09:12:09;;;;;;;3.40;2.33;;;15.50;99.90;;;;;;7372343;19;20340;-76
2022/04/26 09:14:38;;;;;;;4.60;2.55;;;15.60;99.90;;;;;;7372666;19;20360;-74
2022/04/26 09:17:11;;;;;;;4.00;2.53;;;15.50;99.90;;;;;;7373167;19;20321;-78
2022/04/26 09:19:46;;;;;;;4.57;3.05;;;15.40;99.90;;;;;;7370730;19;20432;-76
2022/04/26 09:22:28;;;;;;;2.78;2.15;;;15.10;99.90;;;;;;7367764;19;20353;-76
2022/04/26 09:24:58;;;;;;;2.55;2.03;;;15.40;99.90;;;;;;7370127;19;20368;-76
2022/04/26 09:27:23;;;;;;;2.20;2.00;;;15.50;99.90;;;;;;7372733;19;20324;-76
2022/04/26 09:29:49;;;;;;;1.90;1.80;;;15.60;99.90;;;;;;7370264;19;20355;-76
2022/04/26 09:32:14;;;;;;;2.45;2.00;;;15.80;99.90;;;;;;7367634;19;20341;-75
2022/04/26 09:34:40;;;;;;;3.50;2.37;;;16.00;99.90;;;;;;7367799;19;21629;-76
2022/04/26 09:37:06;;;;;;;2.90;2.30;;;16.20;99.90;;;;;;7367067;19;20356;-75
2022/04/26 09:39:31;;;;;;;1.90;1.80;;;16.20;99.90;;;;;;7367265;19;21321;-76
2022/04/26 09:41:57;;;;;;;2.30;1.90;;;16.40;99.90;;;;;;7365780;19;20363;-76
2022/04/26 09:44:33;;;;;;;2.90;2.10;;;16.70;99.90;;;;;;7371813;19;20984;-75
2022/04/26 09:46:58;;;;;;;3.00;2.43;;;16.70;99.90;;;;;;7369757;19;21464;-75
2022/04/26 09:49:25;;;;;;;2.80;2.10;;;16.80;99.90;;;;;;7369419;19;20419;-76
2022/04/26 09:51:56;;;;;;;2.97;2.00;;;17.10;99.90;;;;;;7365761;19;20424;-76
2022/04/26 09:54:22;;;;;;;2.72;2.20;;;17.50;99.90;;;;;;7371197;19;21119;-75
2022/04/26 09:56:49;;;;;;;2.30;2.10;;;17.80;99.90;;;;;;7371805;19;20352;-76
2022/04/26 09:59:19;;;;;;;2.42;2.22;;;18.00;99.90;;;;;;7365859;19;20416;-77
2022/04/26 10:01:47;;;;;;;2.97;2.30;;;17.90;99.80;;;;;;7367602;19;20325;-74
2022/04/26 10:04:16;;;;;;;2.53;2.15;;;18.00;99.90;;;;;;7367781;19;20420;-75
2022/04/26 10:06:41;;;;;;;2.30;2.10;;;18.10;99.80;;;;;;7368293;19;20460;-76
2022/04/26 10:09:08;;;;;;;2.28;2.00;;;18.50;98.80;;;;;;7367771;19;20321;-76
2022/04/26 10:11:35;;;;;;;2.55;2.10;;;18.80;97.20;;;;;;7367211;19;20373;-76
2022/04/26 10:14:05;;;;;;;3.13;2.83;;;19.10;97.30;;;;;;7368166;19;20332;-76
2022/04/26 10:16:30;;;;;;;2.20;2.00;;;19.20;96.00;;;;;;7369003;19;20741;-76
2022/04/26 10:19:09;;;;;;;2.30;2.10;;;19.40;96.10;;;;;;7370606;19;20370;-76
2022/04/26 10:21:40;;;;;;;2.10;1.90;;;19.60;93.90;;;;;;7366221;19;20357;-75
2022/04/26 10:24:21;;;;;;;2.65;2.33;;;19.80;93.90;;;;;;7367452;19;20356;-75
2022/04/26 10:26:47;;;;;;;3.65;2.45;;;19.80;92.70;;;;;;7361418;19;20344;-76
2022/04/26 10:29:15;;;;;;;2.30;2.10;;;19.90;91.40;;;;;;7365950;19;20347;-77
2022/04/26 10:31:42;;;;;;;3.70;2.28;;;20.10;92.70;;;;;;7368947;19;20709;-76
2022/04/26 10:34:31;;;;;;;3.80;2.17;;;20.30;91.40;;;;;;7367051;19;20357;-77
2022/04/26 10:37:06;;;;;;;1.85;1.75;;;20.20;90.40;;;;;;7268389;19;2004399;-77
2022/04/26 10:39:37;;;;;;;2.30;2.10;;;20.00;90.20;;;;;;7368787;19;20329;-76
2022/04/26 10:42:11;;;;;;;3.33;2.20;;;19.70;90.10;;;;;;7369406;19;20896;-77
2022/04/26 10:44:41;;;;;;;2.22;2.05;;;19.20;90.60;;;;;;7371823;19;20323;-78
2022/04/26 10:47:07;;;;;;;2.33;2.13;;;19.10;90.80;;;;;;7371813;19;20347;-76
2022/04/26 10:49:32;;;;;;;2.00;1.80;;;19.20;90.70;;;;;;7371614;19;20438;-76
2022/04/26 10:52:19;;;;;;;2.90;2.30;;;19.00;91.40;;;;;;7372878;19;20352;-76
2022/04/26 10:54:48;;;;;;;2.20;2.00;;;18.80;91.20;;;;;;7378216;19;20324;-76
2022/04/26 10:57:18;;;;;;;2.23;2.03;;;18.50;92.10;;;;;;7376190;19;20690;-76
2022/04/26 11:00:02;;;;;;;2.15;1.95;;;18.50;92.50;;;;;;7373322;19;20324;-75
2022/04/26 11:02:40;;;;;;;2.45;2.25;;;18.30;93.20;;;;;;7375110;19;20340;-76
2022/04/26 11:05:09;;;;;;;2.35;2.15;;;18.20;91.70;;;;;;7373613;19;20329;-76
2022/04/26 11:07:35;;;;;;;2.43;2.23;;;18.00;91.90;;;;;;7377211;19;20360;-77
2022/04/26 11:10:01;;;;;;;4.40;2.30;;;18.00;92.90;;;;;;7370505;19;20877;-76
2022/04/26 11:12:28;;;;;;;3.25;2.20;;;17.80;93.80;;;;;;7371373;19;20344;-77
2022/04/26 11:14:56;;;;;;;2.35;2.15;;;17.80;93.90;;;;;;7372195;19;20365;-76
2022/04/26 11:17:22;;;;;;;2.85;2.50;;;17.80;94.70;;;;;;7375209;19;20352;-76
2022/04/26 11:19:55;;;;;;;2.60;2.17;;;17.70;94.70;;;;;;7369949;19;20328;-76
2022/04/26 11:22:21;;;;;;;2.63;2.43;;;17.50;94.70;;;;;;7371636;19;20379;-76
2022/04/26 11:30:31;;;;;;;6.90;2.70;;;17.10;95.50;;;;;;7370891;19;20837;-76
2022/04/26 11:33:01;;;;;;;4.35;2.65;;;17.20;97.40;;;;;;7374078;19;20391;-75
2022/04/26 11:35:27;;;;;;;3.17;2.40;;;17.40;97.20;;;;;;7373419;19;20379;-76
2022/04/26 11:37:54;;;;;;;2.33;2.13;;;17.50;96.50;;;;;;7377603;19;20437;-76
2022/04/26 11:40:27;;;;;;;2.20;2.00;;;17.30;94.60;;;;;;7368488;19;20340;-77
2022/04/26 11:42:57;;;;;;;2.22;2.03;;;17.40;96.40;;;;;;7371991;19;20352;-76
2022/04/26 11:45:23;;;;;;;2.40;2.20;;;17.60;95.90;;;;;;7373015;19;20332;-76
2022/04/26 11:47:49;;;;;;;3.05;2.20;;;17.70;96.20;;;;;;7376674;19;20434;-76
2022/04/26 11:50:20;;;;;;;2.60;2.40;;;17.80;94.60;;;;;;7370141;19;20362;-76
2022/04/26 11:52:46;;;;;;;2.20;2.00;;;17.70;93.40;;;;;;7372768;19;20348;-76
2022/04/26 11:55:23;;;;;;;2.43;2.23;;;18.10;96.30;;;;;;7375232;19;20309;-75
2022/04/26 11:57:49;;;;;;;2.63;2.42;;;18.60;93.70;;;;;;7274219;19;2004727;-76
2022/04/26 12:00:15;;;;;;;2.40;2.00;;;19.20;94.10;;;;;;7369306;19;20345;-76
2022/04/26 12:02:42;;;;;;;2.80;2.30;;;20.00;94.40;;;;;;7370341;19;20452;-78
2022/04/26 12:05:08;;;;;;;2.15;1.95;;;20.40;90.90;;;;;;7370487;19;20333;-76
2022/04/26 12:07:34;;;;;;;2.42;2.22;;;20.70;91.30;;;;;;7375728;19;20369;-76
2022/04/26 12:10:00;;;;;;;2.20;2.00;;;21.10;90.10;;;;;;7369923;19;20315;-75
2022/04/26 12:12:26;;;;;;;2.50;2.30;;;21.60;83.30;;;;;;7371747;19;20387;-77
2022/04/26 12:14:51;;;;;;;2.33;2.13;;;21.70;82.90;;;;;;7351696;19;20365;-76
2022/04/26 12:17:27;;;;;;;2.35;2.15;;;22.00;83.90;;;;;;7375291;19;20352;-76
2022/04/26 12:19:52;;;;;;;2.60;2.22;;;22.60;84.80;;;;;;7268994;19;2004406;-77
2022/04/26 12:22:25;;;;;;;2.80;1.75;;;23.30;81.00;;;;;;7371903;19;22123;-75
2022/04/26 12:24:51;;;;;;;2.40;2.20;;;23.80;78.00;;;;;;7376014;19;20348;-76
2022/04/26 12:27:22;;;;;;;2.17;1.97;;;24.10;79.30;;;;;;7378934;19;21168;-75
2022/04/26 12:29:49;;;;;;;2.30;2.10;;;24.20;68.90;;;;;;7370936;19;20369;-76
2022/04/26 12:32:15;;;;;;;2.75;2.10;;;24.00;69.80;;;;;;7371600;19;21046;-76
2022/04/26 12:34:51;;;;;;;2.85;2.42;;;23.80;71.30;;;;;;7374964;19;20388;-80
2022/04/26 12:37:23;;;;;;;2.17;1.98;;;24.40;72.40;;;;;;7374430;19;20379;-75
2022/04/26 12:39:50;;;;;;;2.10;1.92;;;25.00;68.80;;;;;;7373265;19;20368;-77
2022/04/26 12:42:38;;;;;;;3.40;2.20;;;24.80;67.10;;;;;;7371581;19;20988;-79
2022/04/26 12:45:21;;;;;;;2.20;2.00;;;25.70;67.30;;;;;;7271159;19;2004515;-74
2022/04/26 12:50:50;;;;;;;1.92;1.77;;;25.00;62.00;;;;;;7364636;19;20855;-74
2022/04/26 12:53:26;;;;;;;2.13;2.00;;;24.90;63.70;;;;;;7372182;19;20380;-77
2022/04/26 12:55:52;;;;;;;2.38;1.83;;;24.60;64.10;;;;;;7368139;19;20372;-76
2022/04/26 12:58:18;;;;;;;2.65;2.05;;;24.90;62.90;;;;;;7376106;19;20309;-74
2022/04/26 13:00:50;;;;;;;3.50;1.75;;;25.10;60.70;;;;;;7367819;19;20335;-78
2022/04/26 13:03:19;;;;;;;2.77;2.07;;;25.10;61.40;;;;;;7372336;19;20367;-76
2022/04/26 13:05:46;;;;;;;2.35;2.15;;;25.00;62.20;;;;;;7373725;19;20320;-75
2022/04/26 13:08:15;;;;;;;3.53;2.10;;;24.80;60.70;;;;;;7376416;19;20396;-76
2022/04/26 13:10:41;;;;;;;2.20;2.00;;;24.50;60.50;;;;;;7370157;19;20337;-75
2022/04/26 13:13:08;;;;;;;2.30;1.88;;;24.10;61.10;;;;;;7372013;19;20359;-74
2022/04/26 13:15:34;;;;;;;1.85;1.67;;;23.90;60.00;;;;;;7365936;19;20337;-79
2022/04/26 13:18:00;;;;;;;2.17;2.00;;;23.70;60.40;;;;;;7374802;19;20336;-75
2022/04/26 13:20:26;;;;;;;1.90;1.80;;;23.60;60.90;;;;;;7367135;19;20327;-76
2022/04/26 13:22:51;;;;;;;2.80;2.03;;;23.50;62.00;;;;;;7372440;19;20353;-74
2022/04/26 13:25:17;;;;;;;2.10;1.90;;;23.00;60.90;;;;;;7372323;19;20374;-74
2022/04/26 13:27:45;;;;;;;2.53;2.00;;;22.70;61.00;;;;;;7375102;19;21005;-77
2022/04/26 13:30:11;;;;;;;2.65;2.33;;;22.50;61.00;;;;;;7368683;19;20356;-78
2022/04/26 13:32:37;;;;;;;2.60;1.80;;;22.40;62.20;;;;;;7370108;19;20388;-76
2022/04/26 13:35:04;;;;;;;2.25;2.05;;;22.40;62.80;;;;;;7371652;19;20324;-74
2022/04/26 13:37:30;;;;;;;2.10;1.90;;;22.20;62.10;;;;;;7373798;19;20339;-74
2022/04/26 13:39:58;;;;;;;2.53;2.33;;;22.00;60.70;;;;;;7370350;19;20391;-76
2022/04/26 13:42:24;;;;;;;2.27;1.90;;;21.80;62.30;;;;;;7368946;19;20858;-79
2022/04/26 13:44:52;;;;;;;2.08;1.88;;;21.40;62.90;;;;;;7371517;19;20333;-78
2022/04/26 13:47:18;;;;;;;2.20;2.00;;;21.30;64.40;;;;;;7373214;19;20361;-77
2022/04/26 13:49:47;;;;;;;2.53;2.28;;;21.40;63.80;;;;;;7367405;19;20344;-77
2022/04/26 13:52:15;;;;;;;3.00;1.92;;;20.90;63.90;;;;;;7369862;19;20343;-75
2022/04/26 13:54:42;;;;;;;2.22;1.98;;;21.20;66.80;;;;;;7370747;19;20365;-76
2022/04/26 13:57:08;;;;;;;2.78;2.13;;;21.50;63.90;;;;;;7374671;19;20324;-74
2022/04/26 13:59:33;;;;;;;2.63;2.42;;;21.60;64.90;;;;;;7370923;19;20312;-74
2022/04/26 14:01:59;;;;;;;2.37;2.07;;;21.80;64.10;;;;;;7368271;19;20903;-74
2022/04/26 14:04:25;;;;;;;2.00;1.90;;;22.50;67.00;;;;;;7373290;19;20335;-78
2022/04/26 14:06:50;;;;;;;2.30;1.83;;;23.00;63.50;;;;;;7373021;19;20948;-75
2022/04/26 14:09:19;;;;;;;1.70;1.60;;;23.10;62.90;;;;;;7369026;19;21220;-74
2022/04/26 14:11:48;;;;;;;2.28;1.90;;;22.90;62.60;;;;;;7367869;19;20342;-77
2022/04/26 14:22:30;;;;;;;2.20;2.00;;;21.40;63.10;;;;;;7369168;19;20337;-76
2022/04/26 14:24:58;;;;;;;2.40;2.20;;;21.30;65.40;;;;;;7370543;19;20359;-75
2022/04/26 14:27:24;;;;;;;2.00;1.90;;;21.20;64.70;;;;;;7375094;19;20305;-74
2022/04/26 14:29:50;;;;;;;2.10;1.90;;;21.00;66.10;;;;;;7375388;19;20337;-74
2022/04/26 14:32:15;;;;;;;2.90;2.08;;;20.60;65.60;;;;;;7379388;19;20349;-74
2022/04/26 14:34:42;;;;;;;2.20;1.97;;;20.50;65.60;;;;;;7379518;19;20325;-74
2022/04/26 14:37:09;;;;;;;3.35;1.98;;;20.10;66.00;;;;;;7379633;19;20332;-74
2022/04/26 14:39:36;;;;;;;2.08;1.88;;;19.90;66.20;;;;;;7376353;19;20966;-80
2022/04/26 14:42:02;;;;;;;2.05;1.83;;;19.70;67.80;;;;;;7373931;19;20444;-75
2022/04/26 14:44:28;;;;;;;1.85;1.75;;;19.50;66.20;;;;;;7377551;19;20324;-75
2022/04/26 14:46:54;;;;;;;1.97;1.83;;;19.40;67.00;;;;;;7377848;19;20332;-75
2022/04/26 14:49:19;;;;;;;2.10;1.80;;;19.50;67.90;;;;;;7378336;19;20845;-84
2022/04/26 14:51:46;;;;;;;2.00;1.90;;;19.60;68.30;;;;;;7374300;19;20360;-75
2022/04/26 14:54:12;;;;;;;2.13;1.92;;;19.50;68.30;;;;;;7378741;19;20350;-77
2022/04/26 14:56:37;;;;;;;3.83;2.00;;;19.50;68.80;;;;;;7375656;19;20695;-74
2022/04/26 14:59:05;;;;;;;2.28;1.92;;;19.20;68.80;;;;;;7374000;19;20320;-75
2022/04/26 15:01:31;;;;;;;2.20;2.00;;;19.10;68.50;;;;;;7373369;19;20431;-74
2022/04/26 15:03:57;;;;;;;2.10;1.93;;;19.00;69.60;;;;;;7375354;19;20428;-74
2022/04/26 15:06:22;;;;;;;1.93;1.77;;;19.10;69.90;;;;;;7376816;19;20369;-76
2022/04/26 15:11:32;;;;;;;3.55;2.00;;;18.90;68.60;;;;;;7270895;19;2004519;-77
2022/04/26 15:16:46;;;;;;;3.03;1.95;;;19.10;70.40;;;;;;7375768;19;20666;-76
2022/04/26 15:19:12;;;;;;;2.80;1.92;;;19.10;69.10;;;;;;7373809;19;20361;-75
2022/04/26 15:21:38;;;;;;;2.92;1.70;;;19.00;69.60;;;;;;7371940;19;20358;-74
2022/04/26 15:24:04;;;;;;;2.05;1.95;;;18.90;69.30;;;;;;7360516;19;20313;-77
2022/04/26 15:26:30;;;;;;;2.35;2.08;;;18.80;68.30;;;;;;7372176;19;20709;-77
2022/04/26 15:28:56;;;;;;;3.53;2.00;;;18.70;68.00;;;;;;7376741;19;20416;-76
2022/04/26 15:31:22;;;;;;;1.70;1.60;;;18.80;69.70;;;;;;7350186;19;20364;-75
2022/04/26 15:33:49;;;;;;;1.75;1.63;;;18.80;68.70;;;;;;7373614;19;20364;-76
2022/04/26 15:36:15;;;;;;;1.92;1.73;;;18.60;68.40;;;;;;7375815;19;20360;-77
2022/04/26 15:38:40;;;;;;;1.75;1.65;;;18.70;69.40;;;;;;7374956;19;20349;-77
2022/04/26 15:41:06;;;;;;;1.63;1.52;;;18.70;69.20;;;;;;7363167;19;21016;-74
2022/04/26 15:43:35;;;;;;;2.00;1.87;;;18.70;68.80;;;;;;7367847;19;20799;-75
2022/04/26 15:46:05;;;;;;;2.03;1.83;;;18.60;68.40;;;;;;7367583;19;20356;-76
2022/04/26 15:48:31;;;;;;;2.67;1.83;;;18.50;68.70;;;;;;7369794;19;20716;-75
2022/04/26 15:50:56;;;;;;;2.00;1.77;;;18.60;68.80;;;;;;7366736;19;20325;-82
2022/04/26 15:53:22;;;;;;;1.70;1.60;;;18.40;67.60;;;;;;7368638;19;20403;-77
2022/04/26 15:55:48;;;;;;;1.80;1.70;;;18.30;68.50;;;;;;7367295;19;20353;-83
2022/04/26 15:58:13;;;;;;;3.05;1.83;;;18.30;69.70;;;;;;7370675;19;20408;-77
2022/04/26 16:00:39;;;;;;;1.90;1.80;;;18.30;69.40;;;;;;7362819;19;20359;-75
2022/04/26 16:03:04;;;;;;;1.70;1.60;;;18.10;68.20;;;;;;7369495;19;22805;-76
2022/04/26 16:05:31;;;;;;;1.60;1.50;;;18.20;69.40;;;;;;7370576;19;20336;-78
2022/04/26 16:07:57;;;;;;;2.28;1.65;;;18.20;69.50;;;;;;7371481;19;21182;-83
2022/04/26 16:21:22;;;;;;;1.80;1.70;;;17.80;71.10;;;;;;7365624;19;20440;-75
2022/04/26 16:23:48;;;;;;;2.33;1.70;;;17.70;71.70;;;;;;7366691;19;20339;-77
2022/04/26 16:26:14;;;;;;;1.80;1.70;;;17.90;72.70;;;;;;7368041;19;20341;-79
2022/04/26 16:28:40;;;;;;;2.00;1.90;;;17.90;72.10;;;;;;7371680;19;20368;-76
2022/04/26 16:31:06;;;;;;;2.43;1.67;;;17.90;71.50;;;;;;7364767;19;20859;-78
2022/04/26 16:33:32;;;;;;;1.60;1.50;;;17.90;73.50;;;;;;7369192;19;20356;-77
2022/04/26 16:35:57;;;;;;;1.67;1.57;;;17.70;73.20;;;;;;7371833;19;20328;-76
2022/04/26 16:38:23;;;;;;;1.92;1.80;;;17.70;73.40;;;;;;7376387;19;20365;-76
2022/04/26 16:40:48;;;;;;;2.17;1.95;;;17.80;74.50;;;;;;7362441;19;20855;-76
2022/04/26 16:43:17;;;;;;;2.00;1.80;;;17.60;73.30;;;;;;7367839;19;20353;-78
2022/04/26 16:45:44;;;;;;;1.90;1.80;;;17.70;73.80;;;;;;7364644;19;20373;-75
2022/04/26 16:48:09;;;;;;;2.15;1.92;;;17.60;74.20;;;;;;7368304;19;20882;-74
2022/04/26 16:50:35;;;;;;;1.70;1.60;;;17.60;73.30;;;;;;7362013;19;20355;-77
2022/04/26 16:53:00;;;;;;;2.15;1.58;;;17.60;74.40;;;;;;7367583;19;20352;-84
2022/04/26 16:55:27;;;;;;;2.08;1.75;;;17.50;72.00;;;;;;7369126;19;20480;-78
2022/04/26 16:57:53;;;;;;;1.25;1.25;;;17.40;74.20;;;;;;7372575;19;20340;-77
2022/04/26 17:00:19;;;;;;;2.97;1.90;;;17.50;74.70;;;;;;7366073;19;21261;-76
2022/04/26 17:02:45;;;;;;;3.00;1.70;;;17.30;74.20;;;;;;7367140;19;20370;-76
2022/04/26 17:05:12;;;;;;;2.33;1.65;;;17.30;74.90;;;;;;7367939;19;20356;-75
2022/04/26 17:07:39;;;;;;;1.77;1.67;;;17.20;75.20;;;;;;7370563;19;20332;-76
2022/04/26 17:10:06;;;;;;;1.90;1.57;;;17.20;75.00;;;;;;7365663;19;20353;-75